sensor_id;sensor_type;location;lat;lon;timestamp;temperature;humidity
40932;DHT22;36257;46.052;12.540;2022-11-06T00:00:33;9.30;83.50
40932;DHT22;36257;46.052;12.540;2022-11-06T00:03:00;9.30;84.40
40932;DHT22;36257;46.052;12.540;2022-11-06T00:05:26;9.20;84.70
40932;DHT22;36257;46.052;12.540;2022-11-06T00:08:11;9.20;84.30
40932;DHT22;36257;46.052;12.540;2022-11-06T00:10:37;9.10;84.00
40932;DHT22;36257;46.052;12.540;2022-11-06T00:13:02;9.10;83.60
40932;DHT22;36257;46.052;12.540;2022-11-06T00:15:29;9.10;83.40
40932;DHT22;36257;46.052;12.540;2022-11-06T00:17:55;9.10;82.80
40932;DHT22;36257;46.052;12.540;2022-11-06T00:20:21;9.10;82.70
40932;DHT22;36257;46.052;12.540;2022-11-06T00:22:46;9.10;82.80
40932;DHT22;36257;46.052;12.540;2022-11-06T00:25:12;9.10;82.60
40932;DHT22;36257;46.052;12.540;2022-11-06T00:27:39;9.10;82.20
40932;DHT22;36257;46.052;12.540;2022-11-06T00:30:07;9.10;82.30
40932;DHT22;36257;46.052;12.540;2022-11-06T00:32:34;9.10;82.00
40932;DHT22;36257;46.052;12.540;2022-11-06T00:35:00;9.10;82.20
40932;DHT22;36257;46.052;12.540;2022-11-06T00:37:25;9.10;82.00
40932;DHT22;36257;46.052;12.540;2022-11-06T00:39:51;9.10;82.00
40932;DHT22;36257;46.052;12.540;2022-11-06T00:42:17;9.20;81.30
40932;DHT22;36257;46.052;12.540;2022-11-06T00:44:42;9.20;81.50
40932;DHT22;36257;46.052;12.540;2022-11-06T00:47:08;9.20;81.20
40932;DHT22;36257;46.052;12.540;2022-11-06T00:49:33;9.20;80.80
40932;DHT22;36257;46.052;12.540;2022-11-06T00:51:59;9.20;80.60
40932;DHT22;36257;46.052;12.540;2022-11-06T00:54:25;9.20;80.60
40932;DHT22;36257;46.052;12.540;2022-11-06T00:56:51;9.20;80.40
40932;DHT22;36257;46.052;12.540;2022-11-06T00:59:17;9.20;80.30
40932;DHT22;36257;46.052;12.540;2022-11-06T01:01:43;9.30;80.40
40932;DHT22;36257;46.052;12.540;2022-11-06T01:04:12;9.30;80.70
40932;DHT22;36257;46.052;12.540;2022-11-06T01:06:40;9.20;80.70
40932;DHT22;36257;46.052;12.540;2022-11-06T01:09:07;9.20;80.30
40932;DHT22;36257;46.052;12.540;2022-11-06T01:11:35;9.20;80.50
40932;DHT22;36257;46.052;12.540;2022-11-06T01:14:03;9.10;80.80
40932;DHT22;36257;46.052;12.540;2022-11-06T01:16:30;9.10;80.60
40932;DHT22;36257;46.052;12.540;2022-11-06T01:18:57;9.10;80.60
40932;DHT22;36257;46.052;12.540;2022-11-06T01:21:29;9.10;80.20
40932;DHT22;36257;46.052;12.540;2022-11-06T01:23:57;9.10;79.90
40932;DHT22;36257;46.052;12.540;2022-11-06T01:26:24;9.10;79.60
40932;DHT22;36257;46.052;12.540;2022-11-06T01:28:51;9.20;79.50
40932;DHT22;36257;46.052;12.540;2022-11-06T01:31:19;9.20;79.30
40932;DHT22;36257;46.052;12.540;2022-11-06T01:33:45;9.20;79.00
40932;DHT22;36257;46.052;12.540;2022-11-06T01:36:13;9.30;78.70
40932;DHT22;36257;46.052;12.540;2022-11-06T01:38:45;9.30;78.20
40932;DHT22;36257;46.052;12.540;2022-11-06T01:41:13;9.30;78.30
40932;DHT22;36257;46.052;12.540;2022-11-06T01:43:55;9.30;78.30
40932;DHT22;36257;46.052;12.540;2022-11-06T01:46:22;9.30;78.50
40932;DHT22;36257;46.052;12.540;2022-11-06T01:49:09;9.30;78.70
40932;DHT22;36257;46.052;12.540;2022-11-06T01:51:47;9.30;78.50
40932;DHT22;36257;46.052;12.540;2022-11-06T01:54:15;9.20;78.80
40932;DHT22;36257;46.052;12.540;2022-11-06T01:56:43;9.20;79.00
40932;DHT22;36257;46.052;12.540;2022-11-06T01:59:13;9.20;79.30
40932;DHT22;36257;46.052;12.540;2022-11-06T02:01:39;9.20;79.30
40932;DHT22;36257;46.052;12.540;2022-11-06T02:04:15;9.20;79.90
40932;DHT22;36257;46.052;12.540;2022-11-06T02:06:43;9.10;80.30
40932;DHT22;36257;46.052;12.540;2022-11-06T02:09:09;9.10;80.60
40932;DHT22;36257;46.052;12.540;2022-11-06T02:11:40;9.10;80.00
40932;DHT22;36257;46.052;12.540;2022-11-06T02:17:07;9.10;79.20
40932;DHT22;36257;46.052;12.540;2022-11-06T02:28:24;9.10;78.50
40932;DHT22;36257;46.052;12.540;2022-11-06T02:30:52;9.20;78.10
40932;DHT22;36257;46.052;12.540;2022-11-06T02:33:33;9.20;77.40
40932;DHT22;36257;46.052;12.540;2022-11-06T02:36:06;9.20;77.80
40932;DHT22;36257;46.052;12.540;2022-11-06T02:38:39;9.20;77.30
40932;DHT22;36257;46.052;12.540;2022-11-06T02:41:17;9.20;76.90
40932;DHT22;36257;46.052;12.540;2022-11-06T02:43:47;9.20;77.00
40932;DHT22;36257;46.052;12.540;2022-11-06T02:46:20;9.30;78.00
40932;DHT22;36257;46.052;12.540;2022-11-06T02:48:50;9.20;78.60
40932;DHT22;36257;46.052;12.540;2022-11-06T02:51:21;9.10;78.70
40932;DHT22;36257;46.052;12.540;2022-11-06T02:53:48;9.10;78.90
40932;DHT22;36257;46.052;12.540;2022-11-06T02:56:18;9.00;78.90
40932;DHT22;36257;46.052;12.540;2022-11-06T02:59:31;9.00;78.20
40932;DHT22;36257;46.052;12.540;2022-11-06T03:01:41;9.10;79.20
40932;DHT22;36257;46.052;12.540;2022-11-06T03:04:25;9.10;80.10
40932;DHT22;36257;46.052;12.540;2022-11-06T03:06:58;8.90;80.90
40932;DHT22;36257;46.052;12.540;2022-11-06T03:09:30;8.90;80.60
40932;DHT22;36257;46.052;12.540;2022-11-06T03:12:00;8.70;81.40
40932;DHT22;36257;46.052;12.540;2022-11-06T03:15:20;8.70;82.50
40932;DHT22;36257;46.052;12.540;2022-11-06T03:17:42;8.60;81.50
40932;DHT22;36257;46.052;12.540;2022-11-06T03:22:51;8.70;79.50
40932;DHT22;36257;46.052;12.540;2022-11-06T03:25:22;8.70;79.20
40932;DHT22;36257;46.052;12.540;2022-11-06T03:30:23;8.80;80.70
40932;DHT22;36257;46.052;12.540;2022-11-06T03:32:59;8.70;81.60
40932;DHT22;36257;46.052;12.540;2022-11-06T03:38:24;8.60;82.50
40932;DHT22;36257;46.052;12.540;2022-11-06T03:41:18;8.60;82.60
40932;DHT22;36257;46.052;12.540;2022-11-06T03:43:46;8.60;82.40
40932;DHT22;36257;46.052;12.540;2022-11-06T03:46:17;8.60;82.40
40932;DHT22;36257;46.052;12.540;2022-11-06T03:48:51;8.50;82.90
40932;DHT22;36257;46.052;12.540;2022-11-06T03:51:23;8.50;82.30
40932;DHT22;36257;46.052;12.540;2022-11-06T03:53:54;8.50;82.20
40932;DHT22;36257;46.052;12.540;2022-11-06T03:56:24;8.50;82.40
40932;DHT22;36257;46.052;12.540;2022-11-06T03:58:50;8.40;82.60
40932;DHT22;36257;46.052;12.540;2022-11-06T04:01:22;8.40;82.50
40932;DHT22;36257;46.052;12.540;2022-11-06T04:06:43;8.40;82.00
40932;DHT22;36257;46.052;12.540;2022-11-06T04:09:12;8.50;82.50
40932;DHT22;36257;46.052;12.540;2022-11-06T04:11:57;8.50;82.80
40932;DHT22;36257;46.052;12.540;2022-11-06T04:14:45;8.40;83.10
40932;DHT22;36257;46.052;12.540;2022-11-06T04:17:12;8.40;83.10
40932;DHT22;36257;46.052;12.540;2022-11-06T04:19:45;8.30;83.30
40932;DHT22;36257;46.052;12.540;2022-11-06T04:31:40;8.10;84.00
40932;DHT22;36257;46.052;12.540;2022-11-06T04:37:16;8.10;83.50
40932;DHT22;36257;46.052;12.540;2022-11-06T04:39:59;8.10;83.10
40932;DHT22;36257;46.052;12.540;2022-11-06T04:45:22;8.00;83.80
40932;DHT22;36257;46.052;12.540;2022-11-06T04:47:50;8.00;83.20
40932;DHT22;36257;46.052;12.540;2022-11-06T04:50:17;8.00;82.90
40932;DHT22;36257;46.052;12.540;2022-11-06T04:52:44;8.00;83.60
40932;DHT22;36257;46.052;12.540;2022-11-06T04:55:10;8.00;83.70
40932;DHT22;36257;46.052;12.540;2022-11-06T04:57:35;8.00;83.60
40932;DHT22;36257;46.052;12.540;2022-11-06T05:00:01;8.00;83.20
40932;DHT22;36257;46.052;12.540;2022-11-06T05:02:27;8.00;82.70
40932;DHT22;36257;46.052;12.540;2022-11-06T05:04:52;7.90;83.50
40932;DHT22;36257;46.052;12.540;2022-11-06T05:07:18;8.00;83.60
40932;DHT22;36257;46.052;12.540;2022-11-06T05:09:44;8.00;83.40
40932;DHT22;36257;46.052;12.540;2022-11-06T05:12:10;8.00;83.80
40932;DHT22;36257;46.052;12.540;2022-11-06T05:14:35;8.00;84.10
40932;DHT22;36257;46.052;12.540;2022-11-06T05:17:01;8.00;84.80
40932;DHT22;36257;46.052;12.540;2022-11-06T05:19:27;8.00;85.20
40932;DHT22;36257;46.052;12.540;2022-11-06T05:21:52;7.80;85.70
40932;DHT22;36257;46.052;12.540;2022-11-06T05:24:36;7.70;86.00
40932;DHT22;36257;46.052;12.540;2022-11-06T05:27:02;7.70;85.70
40932;DHT22;36257;46.052;12.540;2022-11-06T05:29:28;7.70;85.30
40932;DHT22;36257;46.052;12.540;2022-11-06T05:31:53;7.80;85.10
40932;DHT22;36257;46.052;12.540;2022-11-06T05:34:19;7.90;85.30
40932;DHT22;36257;46.052;12.540;2022-11-06T05:36:45;7.90;85.20
40932;DHT22;36257;46.052;12.540;2022-11-06T05:39:10;7.80;85.20
40932;DHT22;36257;46.052;12.540;2022-11-06T05:41:36;7.80;85.10
40932;DHT22;36257;46.052;12.540;2022-11-06T05:44:02;7.80;85.00
40932;DHT22;36257;46.052;12.540;2022-11-06T05:46:27;7.80;85.70
40932;DHT22;36257;46.052;12.540;2022-11-06T05:48:53;7.80;86.10
40932;DHT22;36257;46.052;12.540;2022-11-06T05:51:19;7.70;85.50
40932;DHT22;36257;46.052;12.540;2022-11-06T05:53:44;7.70;85.50
40932;DHT22;36257;46.052;12.540;2022-11-06T05:56:10;7.70;85.80
40932;DHT22;36257;46.052;12.540;2022-11-06T05:58:36;7.70;85.80
40932;DHT22;36257;46.052;12.540;2022-11-06T06:01:01;7.60;86.20
40932;DHT22;36257;46.052;12.540;2022-11-06T06:03:27;7.60;87.00
40932;DHT22;36257;46.052;12.540;2022-11-06T06:05:53;7.60;87.40
40932;DHT22;36257;46.052;12.540;2022-11-06T06:08:18;7.50;87.40
40932;DHT22;36257;46.052;12.540;2022-11-06T06:10:45;7.40;87.80
40932;DHT22;36257;46.052;12.540;2022-11-06T06:13:11;7.30;88.00
40932;DHT22;36257;46.052;12.540;2022-11-06T06:15:38;7.20;88.50
40932;DHT22;36257;46.052;12.540;2022-11-06T06:18:05;7.30;88.00
40932;DHT22;36257;46.052;12.540;2022-11-06T06:20:31;7.30;87.70
40932;DHT22;36257;46.052;12.540;2022-11-06T06:22:57;7.30;87.90
40932;DHT22;36257;46.052;12.540;2022-11-06T06:25:46;7.40;88.30
40932;DHT22;36257;46.052;12.540;2022-11-06T06:28:12;7.40;88.00
40932;DHT22;36257;46.052;12.540;2022-11-06T06:30:37;7.40;88.10
40932;DHT22;36257;46.052;12.540;2022-11-06T06:33:04;7.50;88.30
40932;DHT22;36257;46.052;12.540;2022-11-06T06:35:31;7.50;87.90
40932;DHT22;36257;46.052;12.540;2022-11-06T06:37:57;7.50;88.20
40932;DHT22;36257;46.052;12.540;2022-11-06T06:40:22;7.60;88.20
40932;DHT22;36257;46.052;12.540;2022-11-06T06:42:48;7.60;87.40
40932;DHT22;36257;46.052;12.540;2022-11-06T06:45:14;7.70;86.90
40932;DHT22;36257;46.052;12.540;2022-11-06T06:47:40;7.80;86.80
40932;DHT22;36257;46.052;12.540;2022-11-06T06:50:06;8.00;87.00
40932;DHT22;36257;46.052;12.540;2022-11-06T06:52:31;8.10;87.00
40932;DHT22;36257;46.052;12.540;2022-11-06T06:54:57;8.20;87.50
40932;DHT22;36257;46.052;12.540;2022-11-06T06:57:23;8.20;87.90
40932;DHT22;36257;46.052;12.540;2022-11-06T06:59:48;8.30;88.00
40932;DHT22;36257;46.052;12.540;2022-11-06T07:02:14;8.30;88.10
40932;DHT22;36257;46.052;12.540;2022-11-06T07:04:39;8.50;88.10
40932;DHT22;36257;46.052;12.540;2022-11-06T07:07:05;8.60;88.20
40932;DHT22;36257;46.052;12.540;2022-11-06T07:09:31;8.70;87.90
40932;DHT22;36257;46.052;12.540;2022-11-06T07:11:57;8.90;87.70
40932;DHT22;36257;46.052;12.540;2022-11-06T07:14:23;9.00;87.70
40932;DHT22;36257;46.052;12.540;2022-11-06T07:16:48;9.10;87.30
40932;DHT22;36257;46.052;12.540;2022-11-06T07:19:14;9.30;86.90
40932;DHT22;36257;46.052;12.540;2022-11-06T07:21:40;9.50;86.90
40932;DHT22;36257;46.052;12.540;2022-11-06T07:24:05;9.70;87.10
40932;DHT22;36257;46.052;12.540;2022-11-06T07:26:31;9.90;86.90
40932;DHT22;36257;46.052;12.540;2022-11-06T07:28:57;10.10;86.10
40932;DHT22;36257;46.052;12.540;2022-11-06T07:31:22;10.30;85.80
40932;DHT22;36257;46.052;12.540;2022-11-06T07:33:48;10.50;84.80
40932;DHT22;36257;46.052;12.540;2022-11-06T07:36:14;10.80;82.30
40932;DHT22;36257;46.052;12.540;2022-11-06T07:38:40;11.00;80.80
40932;DHT22;36257;46.052;12.540;2022-11-06T07:41:09;11.30;76.70
40932;DHT22;36257;46.052;12.540;2022-11-06T07:43:35;11.50;76.60
40932;DHT22;36257;46.052;12.540;2022-11-06T07:46:03;11.70;76.60
40932;DHT22;36257;46.052;12.540;2022-11-06T07:48:29;11.90;76.20
40932;DHT22;36257;46.052;12.540;2022-11-06T07:50:56;12.10;76.60
40932;DHT22;36257;46.052;12.540;2022-11-06T07:53:22;12.40;75.20
40932;DHT22;36257;46.052;12.540;2022-11-06T07:55:53;12.50;75.30
40932;DHT22;36257;46.052;12.540;2022-11-06T07:58:20;12.70;74.30
40932;DHT22;36257;46.052;12.540;2022-11-06T08:00:50;12.80;73.40
40932;DHT22;36257;46.052;12.540;2022-11-06T08:03:16;12.90;71.70
40932;DHT22;36257;46.052;12.540;2022-11-06T08:05:43;13.10;72.50
40932;DHT22;36257;46.052;12.540;2022-11-06T08:08:09;13.30;74.10
40932;DHT22;36257;46.052;12.540;2022-11-06T08:10:35;13.50;71.90
40932;DHT22;36257;46.052;12.540;2022-11-06T08:13:05;13.70;70.30
40932;DHT22;36257;46.052;12.540;2022-11-06T08:15:31;13.80;71.90
40932;DHT22;36257;46.052;12.540;2022-11-06T08:17:58;13.90;71.40
40932;DHT22;36257;46.052;12.540;2022-11-06T08:20:24;14.10;71.80
40932;DHT22;36257;46.052;12.540;2022-11-06T08:22:49;14.20;71.20
40932;DHT22;36257;46.052;12.540;2022-11-06T08:25:15;14.30;70.90
40932;DHT22;36257;46.052;12.540;2022-11-06T08:27:41;14.30;70.10
40932;DHT22;36257;46.052;12.540;2022-11-06T08:30:07;14.50;72.10
40932;DHT22;36257;46.052;12.540;2022-11-06T08:32:32;14.50;70.30
40932;DHT22;36257;46.052;12.540;2022-11-06T08:34:58;14.70;71.10
40932;DHT22;36257;46.052;12.540;2022-11-06T08:37:24;14.80;71.30
40932;DHT22;36257;46.052;12.540;2022-11-06T08:39:49;15.00;71.70
40932;DHT22;36257;46.052;12.540;2022-11-06T08:42:15;15.10;69.50
40932;DHT22;36257;46.052;12.540;2022-11-06T08:44:40;15.40;71.00
40932;DHT22;36257;46.052;12.540;2022-11-06T08:47:07;15.60;68.80
40932;DHT22;36257;46.052;12.540;2022-11-06T08:49:33;15.80;68.40
40932;DHT22;36257;46.052;12.540;2022-11-06T08:52:01;15.70;66.40
40932;DHT22;36257;46.052;12.540;2022-11-06T08:54:26;15.80;67.70
40932;DHT22;36257;46.052;12.540;2022-11-06T08:56:52;15.90;67.70
40932;DHT22;36257;46.052;12.540;2022-11-06T08:59:18;16.00;68.10
40932;DHT22;36257;46.052;12.540;2022-11-06T09:01:43;16.30;69.80
40932;DHT22;36257;46.052;12.540;2022-11-06T09:04:09;16.60;67.30
40932;DHT22;36257;46.052;12.540;2022-11-06T09:06:35;16.90;65.50
40932;DHT22;36257;46.052;12.540;2022-11-06T09:09:00;17.10;67.70
40932;DHT22;36257;46.052;12.540;2022-11-06T09:11:26;17.30;68.20
40932;DHT22;36257;46.052;12.540;2022-11-06T09:13:52;17.60;68.70
40932;DHT22;36257;46.052;12.540;2022-11-06T09:16:17;17.90;68.10
40932;DHT22;36257;46.052;12.540;2022-11-06T09:18:53;18.10;64.70
40932;DHT22;36257;46.052;12.540;2022-11-06T09:21:19;18.20;66.70
40932;DHT22;36257;46.052;12.540;2022-11-06T09:23:45;18.10;62.10
40932;DHT22;36257;46.052;12.540;2022-11-06T09:26:13;18.30;65.70
40932;DHT22;36257;46.052;12.540;2022-11-06T09:28:39;18.30;62.60
40932;DHT22;36257;46.052;12.540;2022-11-06T09:31:05;18.30;63.10
40932;DHT22;36257;46.052;12.540;2022-11-06T09:33:31;18.40;66.60
40932;DHT22;36257;46.052;12.540;2022-11-06T09:35:57;18.60;63.10
40932;DHT22;36257;46.052;12.540;2022-11-06T09:38:22;18.40;62.50
40932;DHT22;36257;46.052;12.540;2022-11-06T09:46:20;18.40;60.90
40932;DHT22;36257;46.052;12.540;2022-11-06T09:48:54;18.40;64.60
40932;DHT22;36257;46.052;12.540;2022-11-06T09:51:39;18.70;63.80
40932;DHT22;36257;46.052;12.540;2022-11-06T09:54:25;18.90;63.30
40932;DHT22;36257;46.052;12.540;2022-11-06T09:56:59;19.10;63.10
40932;DHT22;36257;46.052;12.540;2022-11-06T09:59:26;19.40;60.10
40932;DHT22;36257;46.052;12.540;2022-11-06T10:01:57;19.60;62.60
40932;DHT22;36257;46.052;12.540;2022-11-06T10:07:43;20.00;61.10
40932;DHT22;36257;46.052;12.540;2022-11-06T10:10:15;20.00;60.60
40932;DHT22;36257;46.052;12.540;2022-11-06T10:13:00;20.10;58.20
40932;DHT22;36257;46.052;12.540;2022-11-06T10:15:41;20.00;61.30
40932;DHT22;36257;46.052;12.540;2022-11-06T10:21:07;20.40;59.70
40932;DHT22;36257;46.052;12.540;2022-11-06T10:23:38;20.50;60.40
40932;DHT22;36257;46.052;12.540;2022-11-06T10:26:18;20.70;59.90
40932;DHT22;36257;46.052;12.540;2022-11-06T10:34:24;21.50;59.40
40932;DHT22;36257;46.052;12.540;2022-11-06T10:36:58;21.30;56.30
40932;DHT22;36257;46.052;12.540;2022-11-06T10:39:31;20.90;56.20
40932;DHT22;36257;46.052;12.540;2022-11-06T10:42:30;20.70;58.10
40932;DHT22;36257;46.052;12.540;2022-11-06T10:45:12;20.80;58.60
40932;DHT22;36257;46.052;12.540;2022-11-06T10:47:44;21.00;58.20
40932;DHT22;36257;46.052;12.540;2022-11-06T10:50:12;21.10;58.30
40932;DHT22;36257;46.052;12.540;2022-11-06T10:58:23;21.20;57.00
40932;DHT22;36257;46.052;12.540;2022-11-06T11:00:53;21.20;56.80
40932;DHT22;36257;46.052;12.540;2022-11-06T11:03:32;21.20;59.90
40932;DHT22;36257;46.052;12.540;2022-11-06T11:05:58;21.50;58.00
40932;DHT22;36257;46.052;12.540;2022-11-06T11:08:34;21.30;58.10
40932;DHT22;36257;46.052;12.540;2022-11-06T11:11:24;21.10;57.00
40932;DHT22;36257;46.052;12.540;2022-11-06T11:14:12;20.90;55.40
40932;DHT22;36257;46.052;12.540;2022-11-06T11:16:39;21.00;58.10
40932;DHT22;36257;46.052;12.540;2022-11-06T11:19:27;21.20;55.10
40932;DHT22;36257;46.052;12.540;2022-11-06T11:21:59;21.10;55.90
40932;DHT22;36257;46.052;12.540;2022-11-06T11:24:26;21.00;57.30
40932;DHT22;36257;46.052;12.540;2022-11-06T11:29:31;21.10;56.80
40932;DHT22;36257;46.052;12.540;2022-11-06T11:32:06;21.10;56.70
40932;DHT22;36257;46.052;12.540;2022-11-06T11:34:35;21.50;56.90
40932;DHT22;36257;46.052;12.540;2022-11-06T11:37:04;21.70;55.50
40932;DHT22;36257;46.052;12.540;2022-11-06T11:39:35;21.90;56.20
40932;DHT22;36257;46.052;12.540;2022-11-06T11:44:45;22.10;54.90
40932;DHT22;36257;46.052;12.540;2022-11-06T11:47:22;22.20;56.50
40932;DHT22;36257;46.052;12.540;2022-11-06T11:49:48;22.40;56.10
40932;DHT22;36257;46.052;12.540;2022-11-06T11:52:18;22.20;54.20
40932;DHT22;36257;46.052;12.540;2022-11-06T11:54:50;22.00;56.30
40932;DHT22;36257;46.052;12.540;2022-11-06T11:57:24;22.10;55.20
40932;DHT22;36257;46.052;12.540;2022-11-06T12:00:00;21.80;55.00
40932;DHT22;36257;46.052;12.540;2022-11-06T12:02:30;21.80;56.40
40932;DHT22;36257;46.052;12.540;2022-11-06T12:05:02;21.80;54.80
40932;DHT22;36257;46.052;12.540;2022-11-06T12:07:32;21.60;56.00
40932;DHT22;36257;46.052;12.540;2022-11-06T12:10:01;21.90;56.90
40932;DHT22;36257;46.052;12.540;2022-11-06T12:12:33;22.20;57.00
40932;DHT22;36257;46.052;12.540;2022-11-06T12:15:18;22.50;55.70
40932;DHT22;36257;46.052;12.540;2022-11-06T12:17:52;22.60;54.00
40932;DHT22;36257;46.052;12.540;2022-11-06T12:20:41;22.30;54.70
40932;DHT22;36257;46.052;12.540;2022-11-06T12:23:17;22.50;53.60
40932;DHT22;36257;46.052;12.540;2022-11-06T12:25:50;22.50;55.90
40932;DHT22;36257;46.052;12.540;2022-11-06T12:28:19;22.90;55.40
40932;DHT22;36257;46.052;12.540;2022-11-06T12:30:53;22.90;51.90
40932;DHT22;36257;46.052;12.540;2022-11-06T12:33:21;22.80;53.90
40932;DHT22;36257;46.052;12.540;2022-11-06T12:35:58;22.70;53.90
40932;DHT22;36257;46.052;12.540;2022-11-06T12:41:15;22.60;53.90
40932;DHT22;36257;46.052;12.540;2022-11-06T12:43:47;22.70;53.30
40932;DHT22;36257;46.052;12.540;2022-11-06T12:46:28;22.30;51.80
40932;DHT22;36257;46.052;12.540;2022-11-06T12:51:55;21.50;52.70
40932;DHT22;36257;46.052;12.540;2022-11-06T12:54:52;21.40;53.90
40932;DHT22;36257;46.052;12.540;2022-11-06T13:00:10;22.10;56.80
40932;DHT22;36257;46.052;12.540;2022-11-06T13:10:34;21.80;54.40
40932;DHT22;36257;46.052;12.540;2022-11-06T13:16:32;22.70;53.90
40932;DHT22;36257;46.052;12.540;2022-11-06T13:27:04;21.90;53.60
40932;DHT22;36257;46.052;12.540;2022-11-06T13:29:35;22.10;50.30
40932;DHT22;36257;46.052;12.540;2022-11-06T13:32:01;21.90;51.90
40932;DHT22;36257;46.052;12.540;2022-11-06T13:34:29;21.90;51.70
40932;DHT22;36257;46.052;12.540;2022-11-06T13:36:56;21.50;52.00
40932;DHT22;36257;46.052;12.540;2022-11-06T13:39:30;21.60;53.60
40932;DHT22;36257;46.052;12.540;2022-11-06T13:41:57;21.80;54.90
40932;DHT22;36257;46.052;12.540;2022-11-06T13:44:24;21.90;55.10
40932;DHT22;36257;46.052;12.540;2022-11-06T13:47:01;21.80;54.50
40932;DHT22;36257;46.052;12.540;2022-11-06T13:52:15;21.80;50.70
40932;DHT22;36257;46.052;12.540;2022-11-06T14:00:24;20.50;54.70
40932;DHT22;36257;46.052;12.540;2022-11-06T14:03:14;20.00;57.70
40932;DHT22;36257;46.052;12.540;2022-11-06T14:06:14;19.60;58.90
40932;DHT22;36257;46.052;12.540;2022-11-06T14:08:55;19.50;59.60
40932;DHT22;36257;46.052;12.540;2022-11-06T14:11:31;19.20;56.80
40932;DHT22;36257;46.052;12.540;2022-11-06T14:16:40;19.00;59.70
40932;DHT22;36257;46.052;12.540;2022-11-06T14:19:12;19.00;61.80
40932;DHT22;36257;46.052;12.540;2022-11-06T14:24:26;19.00;61.90
40932;DHT22;36257;46.052;12.540;2022-11-06T14:26:52;19.00;62.00
40932;DHT22;36257;46.052;12.540;2022-11-06T14:32:38;18.80;61.00
40932;DHT22;36257;46.052;12.540;2022-11-06T14:40:38;18.30;61.80
40932;DHT22;36257;46.052;12.540;2022-11-06T14:43:21;18.20;62.80
40932;DHT22;36257;46.052;12.540;2022-11-06T14:45:51;18.10;63.40
40932;DHT22;36257;46.052;12.540;2022-11-06T14:48:48;17.90;64.20
40932;DHT22;36257;46.052;12.540;2022-11-06T14:51:14;17.80;63.20
40932;DHT22;36257;46.052;12.540;2022-11-06T14:53:58;17.60;63.20
40932;DHT22;36257;46.052;12.540;2022-11-06T14:56:25;17.50;64.50
40932;DHT22;36257;46.052;12.540;2022-11-06T14:59:27;17.40;65.60
40932;DHT22;36257;46.052;12.540;2022-11-06T15:02:01;17.20;68.20
40932;DHT22;36257;46.052;12.540;2022-11-06T15:04:32;17.00;68.40
40932;DHT22;36257;46.052;12.540;2022-11-06T15:07:08;16.80;68.30
40932;DHT22;36257;46.052;12.540;2022-11-06T15:12:06;16.50;70.10
40932;DHT22;36257;46.052;12.540;2022-11-06T15:17:12;16.10;70.90
40932;DHT22;36257;46.052;12.540;2022-11-06T15:19:46;15.80;71.90
40932;DHT22;36257;46.052;12.540;2022-11-06T15:22:27;15.60;72.10
40932;DHT22;36257;46.052;12.540;2022-11-06T15:24:58;15.40;72.80
40932;DHT22;36257;46.052;12.540;2022-11-06T15:27:42;15.30;73.00
40932;DHT22;36257;46.052;12.540;2022-11-06T15:30:16;15.20;73.50
40932;DHT22;36257;46.052;12.540;2022-11-06T15:32:44;15.10;74.00
40932;DHT22;36257;46.052;12.540;2022-11-06T15:35:12;15.00;74.10
40932;DHT22;36257;46.052;12.540;2022-11-06T15:38:04;14.80;74.40
40932;DHT22;36257;46.052;12.540;2022-11-06T15:40:34;14.70;74.80
40932;DHT22;36257;46.052;12.540;2022-11-06T15:43:06;14.60;75.60
40932;DHT22;36257;46.052;12.540;2022-11-06T15:45:33;14.50;76.50
40932;DHT22;36257;46.052;12.540;2022-11-06T15:48:04;14.30;76.60
40932;DHT22;36257;46.052;12.540;2022-11-06T15:50:36;14.20;76.80
40932;DHT22;36257;46.052;12.540;2022-11-06T15:58:34;13.80;78.10
40932;DHT22;36257;46.052;12.540;2022-11-06T16:01:02;13.80;79.00
40932;DHT22;36257;46.052;12.540;2022-11-06T16:03:49;13.60;79.60
40932;DHT22;36257;46.052;12.540;2022-11-06T16:06:16;13.60;80.40
40932;DHT22;36257;46.052;12.540;2022-11-06T16:08:42;13.60;80.40
40932;DHT22;36257;46.052;12.540;2022-11-06T16:11:17;13.50;80.90
40932;DHT22;36257;46.052;12.540;2022-11-06T16:13:44;13.50;79.80
40932;DHT22;36257;46.052;12.540;2022-11-06T16:16:33;13.30;79.90
40932;DHT22;36257;46.052;12.540;2022-11-06T16:19:01;13.30;80.00
40932;DHT22;36257;46.052;12.540;2022-11-06T16:21:30;13.10;80.30
40932;DHT22;36257;46.052;12.540;2022-11-06T16:24:13;13.00;80.70
40932;DHT22;36257;46.052;12.540;2022-11-06T16:26:49;12.90;81.10
40932;DHT22;36257;46.052;12.540;2022-11-06T16:29:19;12.70;81.10
40932;DHT22;36257;46.052;12.540;2022-11-06T16:31:45;12.70;81.30
40932;DHT22;36257;46.052;12.540;2022-11-06T16:42:18;12.40;82.50
40932;DHT22;36257;46.052;12.540;2022-11-06T16:44:46;12.40;82.60
40932;DHT22;36257;46.052;12.540;2022-11-06T16:47:19;12.30;82.40
40932;DHT22;36257;46.052;12.540;2022-11-06T16:49:48;12.30;82.30
40932;DHT22;36257;46.052;12.540;2022-11-06T16:52:22;12.30;83.10
40932;DHT22;36257;46.052;12.540;2022-11-06T16:54:51;12.20;82.80
40932;DHT22;36257;46.052;12.540;2022-11-06T16:57:22;12.10;82.80
40932;DHT22;36257;46.052;12.540;2022-11-06T16:59:58;12.10;82.60
40932;DHT22;36257;46.052;12.540;2022-11-06T17:02:29;12.10;82.50
40932;DHT22;36257;46.052;12.540;2022-11-06T17:05:16;12.10;82.40
40932;DHT22;36257;46.052;12.540;2022-11-06T17:07:44;12.00;82.30
40932;DHT22;36257;46.052;12.540;2022-11-06T17:10:44;12.00;82.00
40932;DHT22;36257;46.052;12.540;2022-11-06T17:13:14;11.90;81.90
40932;DHT22;36257;46.052;12.540;2022-11-06T17:15:40;11.90;81.40
40932;DHT22;36257;46.052;12.540;2022-11-06T17:18:08;11.80;81.20
40932;DHT22;36257;46.052;12.540;2022-11-06T17:20:36;11.90;80.90
40932;DHT22;36257;46.052;12.540;2022-11-06T17:23:02;11.80;80.60
40932;DHT22;36257;46.052;12.540;2022-11-06T17:25:28;11.80;80.70
40932;DHT22;36257;46.052;12.540;2022-11-06T17:27:54;11.70;81.20
40932;DHT22;36257;46.052;12.540;2022-11-06T17:30:20;11.70;81.40
40932;DHT22;36257;46.052;12.540;2022-11-06T17:32:46;11.70;81.40
40932;DHT22;36257;46.052;12.540;2022-11-06T17:35:11;11.70;81.20
40932;DHT22;36257;46.052;12.540;2022-11-06T17:37:37;11.60;80.90
40932;DHT22;36257;46.052;12.540;2022-11-06T17:40:03;11.60;80.90
40932;DHT22;36257;46.052;12.540;2022-11-06T17:42:30;11.60;81.40
40932;DHT22;36257;46.052;12.540;2022-11-06T17:44:56;11.50;80.30
40932;DHT22;36257;46.052;12.540;2022-11-06T17:47:25;11.50;80.00
40932;DHT22;36257;46.052;12.540;2022-11-06T17:49:52;11.40;79.60
40932;DHT22;36257;46.052;12.540;2022-11-06T17:52:18;11.40;79.70
40932;DHT22;36257;46.052;12.540;2022-11-06T17:54:45;11.40;80.20
40932;DHT22;36257;46.052;12.540;2022-11-06T17:57:13;11.30;80.80